sensor_id;sensor_type;location;lat;lon;timestamp;pressure;altitude;pressure_sealevel;temperature;humidity
60465;BME280;46314;52.392;9.758;2024-02-14T00:00:10;100922.75;;;8.52;74.19
60465;BME280;46314;52.392;9.758;2024-02-14T00:02:37;100916.97;;;8.33;75.88
60465;BME280;46314;52.392;9.758;2024-02-14T00:05:05;100915.28;;;8.58;75.34
60465;BME280;46314;52.392;9.758;2024-02-14T00:07:32;100911.19;;;8.45;75.47
60465;BME280;46314;52.392;9.758;2024-02-14T00:09:59;100910.06;;;8.41;75.58
60465;BME280;46314;52.392;9.758;2024-02-14T00:12:26;100913.63;;;8.57;75.50
60465;BME280;46314;52.392;9.758;2024-02-14T00:14:53;100902.81;;;8.71;75.12
60465;BME280;46314;52.392;9.758;2024-02-14T00:17:19;100905.47;;;8.86;74.37
60465;BME280;46314;52.392;9.758;2024-02-14T00:19:46;100903.41;;;8.58;75.83
60465;BME280;46314;52.392;9.758;2024-02-14T00:22:12;100896.16;;;8.67;75.42
60465;BME280;46314;52.392;9.758;2024-02-14T00:24:40;100900.00;;;8.76;75.96
60465;BME280;46314;52.392;9.758;2024-02-14T00:27:06;100892.94;;;8.34;77.23
60465;BME280;46314;52.392;9.758;2024-02-14T00:29:33;100885.69;;;8.64;76.05
60465;BME280;46314;52.392;9.758;2024-02-14T00:31:59;100894.47;;;8.81;74.75
60465;BME280;46314;52.392;9.758;2024-02-14T00:34:26;100883.88;;;8.18;77.75
60465;BME280;46314;52.392;9.758;2024-02-14T00:36:52;100886.28;;;8.50;77.21
60465;BME280;46314;52.392;9.758;2024-02-14T00:39:19;100883.56;;;8.25;78.46
60465;BME280;46314;52.392;9.758;2024-02-14T00:41:47;100876.66;;;8.43;78.52
60465;BME280;46314;52.392;9.758;2024-02-14T00:44:14;100870.25;;;8.47;78.27
60465;BME280;46314;52.392;9.758;2024-02-14T00:46:40;100868.13;;;8.89;76.22
60465;BME280;46314;52.392;9.758;2024-02-14T00:49:06;100860.06;;;8.43;79.08
60465;BME280;46314;52.392;9.758;2024-02-14T00:51:33;100869.16;;;8.48;78.98
60465;BME280;46314;52.392;9.758;2024-02-14T00:54:00;100863.41;;;8.19;80.00
60465;BME280;46314;52.392;9.758;2024-02-14T00:56:26;100865.59;;;8.32;78.80
60465;BME280;46314;52.392;9.758;2024-02-14T00:58:54;100864.25;;;8.20;80.55
60465;BME280;46314;52.392;9.758;2024-02-14T01:01:20;100858.06;;;8.59;78.49
60465;BME280;46314;52.392;9.758;2024-02-14T01:03:47;100855.56;;;8.57;78.70
60465;BME280;46314;52.392;9.758;2024-02-14T01:06:14;100856.06;;;8.69;79.07
60465;BME280;46314;52.392;9.758;2024-02-14T01:08:41;100855.78;;;8.71;78.05
60465;BME280;46314;52.392;9.758;2024-02-14T01:11:07;100838.19;;;8.51;78.83
60465;BME280;46314;52.392;9.758;2024-02-14T01:13:34;100838.94;;;8.67;77.89
60465;BME280;46314;52.392;9.758;2024-02-14T01:16:02;100840.38;;;8.49;79.06
60465;BME280;46314;52.392;9.758;2024-02-14T01:18:28;100840.44;;;8.29;79.25
60465;BME280;46314;52.392;9.758;2024-02-14T01:20:55;100839.66;;;8.88;78.13
60465;BME280;46314;52.392;9.758;2024-02-14T01:23:21;100832.91;;;9.05;76.15
60465;BME280;46314;52.392;9.758;2024-02-14T01:25:48;100832.25;;;9.23;76.59
60465;BME280;46314;52.392;9.758;2024-02-14T01:28:14;100826.53;;;8.55;78.14
60465;BME280;46314;52.392;9.758;2024-02-14T01:30:41;100828.22;;;9.00;76.58
60465;BME280;46314;52.392;9.758;2024-02-14T01:33:09;100826.28;;;8.51;79.57
60465;BME280;46314;52.392;9.758;2024-02-14T01:35:36;100826.00;;;8.52;79.18
60465;BME280;46314;52.392;9.758;2024-02-14T01:38:02;100823.59;;;8.90;77.95
60465;BME280;46314;52.392;9.758;2024-02-14T01:40:29;100828.00;;;9.31;76.13
60465;BME280;46314;52.392;9.758;2024-02-14T01:42:55;100822.66;;;8.61;79.69
60465;BME280;46314;52.392;9.758;2024-02-14T01:45:22;100814.41;;;8.50;81.15
60465;BME280;46314;52.392;9.758;2024-02-14T01:47:50;100818.13;;;8.80;78.66
60465;BME280;46314;52.392;9.758;2024-02-14T01:50:18;100802.63;;;8.79;78.20
60465;BME280;46314;52.392;9.758;2024-02-14T01:52:45;100808.53;;;8.67;78.65
60465;BME280;46314;52.392;9.758;2024-02-14T01:55:12;100805.28;;;8.55;79.60
60465;BME280;46314;52.392;9.758;2024-02-14T01:57:39;100798.19;;;8.83;78.75
60465;BME280;46314;52.392;9.758;2024-02-14T02:00:07;100788.56;;;8.70;78.55
60465;BME280;46314;52.392;9.758;2024-02-14T02:02:34;100785.69;;;8.36;80.19
60465;BME280;46314;52.392;9.758;2024-02-14T02:05:00;100789.53;;;8.40;80.46
60465;BME280;46314;52.392;9.758;2024-02-14T02:07:31;100784.13;;;8.80;78.95
60465;BME280;46314;52.392;9.758;2024-02-14T02:09:58;100781.50;;;8.49;81.46
60465;BME280;46314;52.392;9.758;2024-02-14T02:12:24;100787.25;;;8.63;80.49
60465;BME280;46314;52.392;9.758;2024-02-14T02:14:51;100788.41;;;8.57;81.25
60465;BME280;46314;52.392;9.758;2024-02-14T02:17:17;100782.97;;;8.31;84.58
60465;BME280;46314;52.392;9.758;2024-02-14T02:19:44;100784.41;;;8.13;87.62
60465;BME280;46314;52.392;9.758;2024-02-14T02:22:11;100785.75;;;8.26;89.52
60465;BME280;46314;52.392;9.758;2024-02-14T02:24:38;100776.97;;;8.08;90.75
60465;BME280;46314;52.392;9.758;2024-02-14T02:27:05;100782.38;;;8.39;91.17
60465;BME280;46314;52.392;9.758;2024-02-14T02:29:31;100770.97;;;7.81;97.03
60465;BME280;46314;52.392;9.758;2024-02-14T02:31:58;100766.22;;;7.96;99.90
60465;BME280;46314;52.392;9.758;2024-02-14T02:34:25;100761.84;;;8.56;95.09
60465;BME280;46314;52.392;9.758;2024-02-14T02:36:52;100760.34;;;8.19;98.56
60465;BME280;46314;52.392;9.758;2024-02-14T02:39:19;100752.78;;;8.50;96.03
60465;BME280;46314;52.392;9.758;2024-02-14T02:41:46;100758.03;;;8.46;100.00
60465;BME280;46314;52.392;9.758;2024-02-14T02:44:13;100747.28;;;8.45;97.96
60465;BME280;46314;52.392;9.758;2024-02-14T02:46:39;100740.47;;;8.71;96.82
60465;BME280;46314;52.392;9.758;2024-02-14T02:49:06;100738.84;;;8.10;100.00
60465;BME280;46314;52.392;9.758;2024-02-14T02:51:32;100739.25;;;8.38;100.00
60465;BME280;46314;52.392;9.758;2024-02-14T02:53:59;100735.50;;;8.19;100.00
60465;BME280;46314;52.392;9.758;2024-02-14T02:56:26;100735.66;;;8.87;99.18
60465;BME280;46314;52.392;9.758;2024-02-14T03:01:20;100742.09;;;8.78;100.00
60465;BME280;46314;52.392;9.758;2024-02-14T03:03:46;100730.44;;;8.36;100.00
60465;BME280;46314;52.392;9.758;2024-02-14T03:06:13;100719.09;;;8.38;100.00
60465;BME280;46314;52.392;9.758;2024-02-14T03:08:40;100717.56;;;8.11;100.00
60465;BME280;46314;52.392;9.758;2024-02-14T03:11:07;100711.34;;;8.79;100.00
60465;BME280;46314;52.392;9.758;2024-02-14T03:13:33;100714.84;;;8.56;100.00
60465;BME280;46314;52.392;9.758;2024-02-14T03:16:01;100714.31;;;8.53;100.00
60465;BME280;46314;52.392;9.758;2024-02-14T03:18:28;100715.19;;;8.44;100.00
60465;BME280;46314;52.392;9.758;2024-02-14T03:20:54;100705.94;;;8.14;100.00
60465;BME280;46314;52.392;9.758;2024-02-14T03:23:21;100703.38;;;8.78;100.00
60465;BME280;46314;52.392;9.758;2024-02-14T03:25:47;100709.31;;;8.56;100.00
60465;BME280;46314;52.392;9.758;2024-02-14T03:28:14;100706.78;;;8.14;100.00
60465;BME280;46314;52.392;9.758;2024-02-14T03:30:40;100701.84;;;8.06;100.00
60465;BME280;46314;52.392;9.758;2024-02-14T03:33:08;100705.94;;;8.14;100.00
60465;BME280;46314;52.392;9.758;2024-02-14T03:35:35;100697.13;;;8.12;100.00
60465;BME280;46314;52.392;9.758;2024-02-14T03:38:02;100693.59;;;8.51;100.00
60465;BME280;46314;52.392;9.758;2024-02-14T03:40:28;100692.31;;;9.07;100.00
60465;BME280;46314;52.392;9.758;2024-02-14T03:42:55;100691.03;;;8.15;100.00
60465;BME280;46314;52.392;9.758;2024-02-14T03:45:22;100690.53;;;8.52;100.00
60465;BME280;46314;52.392;9.758;2024-02-14T03:47:49;100684.00;;;8.33;100.00
60465;BME280;46314;52.392;9.758;2024-02-14T03:50:17;100682.44;;;8.66;100.00
60465;BME280;46314;52.392;9.758;2024-02-14T03:52:43;100670.19;;;8.33;100.00
60465;BME280;46314;52.392;9.758;2024-02-14T03:55:10;100671.03;;;8.28;100.00
60465;BME280;46314;52.392;9.758;2024-02-14T03:57:37;100665.72;;;8.82;100.00
60465;BME280;46314;52.392;9.758;2024-02-14T04:00:04;100668.75;;;8.41;100.00
60465;BME280;46314;52.392;9.758;2024-02-14T04:02:31;100662.22;;;9.29;100.00
60465;BME280;46314;52.392;9.758;2024-02-14T04:04:57;100660.59;;;8.65;100.00
60465;BME280;46314;52.392;9.758;2024-02-14T04:07:25;100663.16;;;8.06;100.00
60465;BME280;46314;52.392;9.758;2024-02-14T04:09:52;100659.03;;;8.53;100.00
60465;BME280;46314;52.392;9.758;2024-02-14T04:12:18;100656.72;;;8.66;100.00
60465;BME280;46314;52.392;9.758;2024-02-14T04:14:45;100667.28;;;8.59;100.00
60465;BME280;46314;52.392;9.758;2024-02-14T04:17:11;100657.28;;;8.63;100.00
60465;BME280;46314;52.392;9.758;2024-02-14T04:19:38;100656.88;;;8.45;100.00
60465;BME280;46314;52.392;9.758;2024-02-14T04:22:04;100658.16;;;8.58;100.00
60465;BME280;46314;52.392;9.758;2024-02-14T04:24:34;100650.09;;;8.62;100.00
60465;BME280;46314;52.392;9.758;2024-02-14T04:27:00;100659.06;;;8.83;100.00
60465;BME280;46314;52.392;9.758;2024-02-14T04:29:27;100654.16;;;8.75;100.00
60465;BME280;46314;52.392;9.758;2024-02-14T04:31:54;100651.91;;;8.37;100.00
60465;BME280;46314;52.392;9.758;2024-02-14T04:34:20;100662.66;;;8.49;100.00
60465;BME280;46314;52.392;9.758;2024-02-14T04:36:47;100661.81;;;8.83;100.00
60465;BME280;46314;52.392;9.758;2024-02-14T04:39:13;100655.38;;;8.13;100.00
60465;BME280;46314;52.392;9.758;2024-02-14T04:41:41;100659.00;;;8.09;100.00
60465;BME280;46314;52.392;9.758;2024-02-14T04:44:23;100653.50;;;8.53;100.00
60465;BME280;46314;52.392;9.758;2024-02-14T04:46:49;100653.66;;;8.23;100.00
60465;BME280;46314;52.392;9.758;2024-02-14T04:49:16;100646.88;;;8.05;100.00
60465;BME280;46314;52.392;9.758;2024-02-14T04:51:42;100651.44;;;8.25;100.00
60465;BME280;46314;52.392;9.758;2024-02-14T04:54:09;100659.91;;;7.94;100.00
60465;BME280;46314;52.392;9.758;2024-02-14T04:56:35;100645.56;;;7.92;100.00
60465;BME280;46314;52.392;9.758;2024-02-14T04:59:03;100655.16;;;8.05;100.00
60465;BME280;46314;52.392;9.758;2024-02-14T05:01:30;100653.91;;;8.26;100.00
60465;BME280;46314;52.392;9.758;2024-02-14T05:03:56;100643.47;;;8.23;100.00
60465;BME280;46314;52.392;9.758;2024-02-14T05:06:23;100643.09;;;8.35;100.00
60465;BME280;46314;52.392;9.758;2024-02-14T05:08:49;100647.81;;;7.90;100.00
60465;BME280;46314;52.392;9.758;2024-02-14T05:11:16;100640.38;;;8.25;100.00
60465;BME280;46314;52.392;9.758;2024-02-14T05:13:43;100633.91;;;8.79;100.00
60465;BME280;46314;52.392;9.758;2024-02-14T05:16:11;100634.03;;;8.24;100.00
60465;BME280;46314;52.392;9.758;2024-02-14T05:18:37;100640.47;;;8.59;100.00
60465;BME280;46314;52.392;9.758;2024-02-14T05:21:05;100640.28;;;8.40;100.00
60465;BME280;46314;52.392;9.758;2024-02-14T05:23:32;100640.78;;;8.52;100.00
60465;BME280;46314;52.392;9.758;2024-02-14T05:25:59;100637.97;;;8.58;100.00
60465;BME280;46314;52.392;9.758;2024-02-14T05:28:25;100638.44;;;8.70;100.00
60465;BME280;46314;52.392;9.758;2024-02-14T05:30:51;100644.22;;;9.03;100.00
60465;BME280;46314;52.392;9.758;2024-02-14T05:33:20;100631.22;;;8.34;100.00
60465;BME280;46314;52.392;9.758;2024-02-14T05:35:47;100621.75;;;9.09;100.00
60465;BME280;46314;52.392;9.758;2024-02-14T05:38:13;100622.84;;;8.79;100.00
60465;BME280;46314;52.392;9.758;2024-02-14T05:40:40;100629.19;;;8.50;100.00
60465;BME280;46314;52.392;9.758;2024-02-14T05:43:06;100630.94;;;8.36;100.00
60465;BME280;46314;52.392;9.758;2024-02-14T05:45:33;100620.59;;;9.40;100.00
60465;BME280;46314;52.392;9.758;2024-02-14T05:47:59;100629.19;;;8.85;100.00
60465;BME280;46314;52.392;9.758;2024-02-14T05:50:27;100624.78;;;8.84;100.00
60465;BME280;46314;52.392;9.758;2024-02-14T05:52:54;100619.63;;;8.72;100.00
60465;BME280;46314;52.392;9.758;2024-02-14T05:55:20;100613.94;;;8.87;100.00
60465;BME280;46314;52.392;9.758;2024-02-14T05:57:47;100624.28;;;9.30;100.00
60465;BME280;46314;52.392;9.758;2024-02-14T06:00:14;100625.84;;;9.84;100.00
60465;BME280;46314;52.392;9.758;2024-02-14T06:02:40;100619.91;;;8.70;100.00
60465;BME280;46314;52.392;9.758;2024-02-14T06:05:08;100613.63;;;8.60;100.00
60465;BME280;46314;52.392;9.758;2024-02-14T06:07:36;100609.94;;;8.99;100.00
60465;BME280;46314;52.392;9.758;2024-02-14T06:10:02;100613.03;;;9.21;100.00
60465;BME280;46314;52.392;9.758;2024-02-14T06:12:29;100617.53;;;9.17;100.00
60465;BME280;46314;52.392;9.758;2024-02-14T06:14:56;100618.00;;;9.24;100.00
60465;BME280;46314;52.392;9.758;2024-02-14T06:17:22;100621.72;;;9.15;100.00
60465;BME280;46314;52.392;9.758;2024-02-14T06:19:49;100622.34;;;9.55;100.00
60465;BME280;46314;52.392;9.758;2024-02-14T06:22:15;100628.16;;;9.05;100.00
60465;BME280;46314;52.392;9.758;2024-02-14T06:24:43;100629.72;;;9.40;100.00
60465;BME280;46314;52.392;9.758;2024-02-14T06:27:11;100631.19;;;8.74;100.00
60465;BME280;46314;52.392;9.758;2024-02-14T06:29:37;100627.09;;;9.01;100.00
60465;BME280;46314;52.392;9.758;2024-02-14T06:32:05;100637.22;;;9.40;100.00
60465;BME280;46314;52.392;9.758;2024-02-14T06:34:31;100632.16;;;9.18;100.00
60465;BME280;46314;52.392;9.758;2024-02-14T06:36:58;100635.59;;;9.34;100.00
60465;BME280;46314;52.392;9.758;2024-02-14T06:39:24;100641.22;;;8.99;100.00
60465;BME280;46314;52.392;9.758;2024-02-14T06:41:52;100634.31;;;8.97;100.00
60465;BME280;46314;52.392;9.758;2024-02-14T06:44:19;100637.03;;;9.55;100.00
60465;BME280;46314;52.392;9.758;2024-02-14T06:46:45;100652.91;;;9.69;100.00
60465;BME280;46314;52.392;9.758;2024-02-14T06:49:11;100639.53;;;9.76;100.00
60465;BME280;46314;52.392;9.758;2024-02-14T06:51:38;100638.78;;;9.46;100.00
60465;BME280;46314;52.392;9.758;2024-02-14T06:54:05;100645.97;;;9.47;100.00
60465;BME280;46314;52.392;9.758;2024-02-14T06:56:31;100651.00;;;9.45;100.00
60465;BME280;46314;52.392;9.758;2024-02-14T06:58:59;100646.53;;;9.20;100.00
60465;BME280;46314;52.392;9.758;2024-02-14T07:01:26;100652.09;;;9.44;100.00
60465;BME280;46314;52.392;9.758;2024-02-14T07:03:55;100647.84;;;9.76;100.00
60465;BME280;46314;52.392;9.758;2024-02-14T07:06:21;100650.09;;;9.25;100.00
60465;BME280;46314;52.392;9.758;2024-02-14T07:08:48;100652.75;;;9.36;100.00
60465;BME280;46314;52.392;9.758;2024-02-14T07:11:15;100657.81;;;9.77;100.00
60465;BME280;46314;52.392;9.758;2024-02-14T07:13:42;100656.41;;;9.55;100.00
60465;BME280;46314;52.392;9.758;2024-02-14T07:16:10;100652.22;;;9.58;100.00
60465;BME280;46314;52.392;9.758;2024-02-14T07:18:37;100656.22;;;9.71;100.00
60465;BME280;46314;52.392;9.758;2024-02-14T07:21:04;100656.38;;;9.60;100.00
60465;BME280;46314;52.392;9.758;2024-02-14T07:23:31;100660.66;;;9.23;100.00
60465;BME280;46314;52.392;9.758;2024-02-14T07:25:58;100661.34;;;9.34;100.00
60465;BME280;46314;52.392;9.758;2024-02-14T07:28:24;100670.56;;;9.54;100.00
60465;BME280;46314;52.392;9.758;2024-02-14T07:30:51;100672.78;;;10.19;100.00
60465;BME280;46314;52.392;9.758;2024-02-14T07:33:18;100674.41;;;10.01;100.00
60465;BME280;46314;52.392;9.758;2024-02-14T07:35:45;100663.75;;;9.65;100.00
60465;BME280;46314;52.392;9.758;2024-02-14T07:38:12;100681.09;;;10.19;100.00
60465;BME280;46314;52.392;9.758;2024-02-14T07:40:38;100676.19;;;10.35;100.00
60465;BME280;46314;52.392;9.758;2024-02-14T07:43:05;100664.28;;;9.67;100.00
60465;BME280;46314;52.392;9.758;2024-02-14T07:45:31;100674.66;;;9.80;100.00
60465;BME280;46314;52.392;9.758;2024-02-14T07:47:58;100681.75;;;10.11;100.00
60465;BME280;46314;52.392;9.758;2024-02-14T07:50:25;100677.41;;;10.23;100.00
60465;BME280;46314;52.392;9.758;2024-02-14T07:52:52;100672.63;;;10.10;100.00
60465;BME280;46314;52.392;9.758;2024-02-14T07:55:18;100678.25;;;9.81;100.00
60465;BME280;46314;52.392;9.758;2024-02-14T07:57:45;100680.88;;;10.15;100.00
60465;BME280;46314;52.392;9.758;2024-02-14T08:00:12;100679.16;;;9.76;100.00
60465;BME280;46314;52.392;9.758;2024-02-14T08:02:39;100679.22;;;10.14;100.00
60465;BME280;46314;52.392;9.758;2024-02-14T08:05:06;100680.53;;;10.60;100.00
60465;BME280;46314;52.392;9.758;2024-02-14T08:07:34;100681.78;;;10.30;100.00
60465;BME280;46314;52.392;9.758;2024-02-14T08:10:00;100680.97;;;10.67;100.00
60465;BME280;46314;52.392;9.758;2024-02-14T08:12:27;100680.81;;;10.39;100.00
60465;BME280;46314;52.392;9.758;2024-02-14T08:14:53;100682.91;;;10.67;100.00
60465;BME280;46314;52.392;9.758;2024-02-14T08:17:19;100688.44;;;10.10;100.00
60465;BME280;46314;52.392;9.758;2024-02-14T08:19:46;100689.47;;;10.14;100.00
60465;BME280;46314;52.392;9.758;2024-02-14T08:22:13;100692.91;;;10.49;100.00
60465;BME280;46314;52.392;9.758;2024-02-14T08:24:40;100690.97;;;10.25;100.00
60465;BME280;46314;52.392;9.758;2024-02-14T08:27:07;100695.97;;;10.47;100.00
60465;BME280;46314;52.392;9.758;2024-02-14T08:29:33;100693.31;;;9.75;100.00
60465;BME280;46314;52.392;9.758;2024-02-14T08:32:00;100698.53;;;10.44;100.00
60465;BME280;46314;52.392;9.758;2024-02-14T08:34:26;100700.91;;;10.31;100.00
60465;BME280;46314;52.392;9.758;2024-02-14T08:36:53;100699.13;;;10.16;100.00
60465;BME280;46314;52.392;9.758;2024-02-14T08:39:19;100701.03;;;9.97;100.00
60465;BME280;46314;52.392;9.758;2024-02-14T08:41:47;100700.94;;;10.50;100.00
60465;BME280;46314;52.392;9.758;2024-02-14T08:44:14;100698.38;;;10.35;100.00
60465;BME280;46314;52.392;9.758;2024-02-14T08:46:40;100704.28;;;10.04;100.00
60465;BME280;46314;52.392;9.758;2024-02-14T08:49:06;100711.47;;;10.48;100.00
60465;BME280;46314;52.392;9.758;2024-02-14T08:51:37;100713.22;;;10.01;100.00
60465;BME280;46314;52.392;9.758;2024-02-14T08:54:04;100712.06;;;10.83;100.00
60465;BME280;46314;52.392;9.758;2024-02-14T08:56:31;100705.00;;;10.91;100.00
60465;BME280;46314;52.392;9.758;2024-02-14T08:58:59;100709.97;;;10.37;100.00
60465;BME280;46314;52.392;9.758;2024-02-14T09:01:25;100710.56;;;10.34;100.00
60465;BME280;46314;52.392;9.758;2024-02-14T09:03:52;100720.19;;;10.41;100.00
60465;BME280;46314;52.392;9.758;2024-02-14T09:06:18;100717.31;;;10.85;100.00
60465;BME280;46314;52.392;9.758;2024-02-14T09:08:45;100717.28;;;11.36;100.00
60465;BME280;46314;52.392;9.758;2024-02-14T09:11:13;100722.41;;;11.43;100.00
60465;BME280;46314;52.392;9.758;2024-02-14T09:13:39;100721.84;;;11.13;100.00
60465;BME280;46314;52.392;9.758;2024-02-14T09:16:07;100722.28;;;11.21;100.00
60465;BME280;46314;52.392;9.758;2024-02-14T09:18:34;100722.41;;;11.43;100.00
60465;BME280;46314;52.392;9.758;2024-02-14T09:21:00;100723.50;;;10.95;100.00
60465;BME280;46314;52.392;9.758;2024-02-14T09:23:27;100725.31;;;11.38;100.00
60465;BME280;46314;52.392;9.758;2024-02-14T09:25:54;100721.50;;;11.48;100.00
60465;BME280;46314;52.392;9.758;2024-02-14T09:28:20;100723.50;;;11.61;100.00
60465;BME280;46314;52.392;9.758;2024-02-14T09:30:47;100724.19;;;11.53;100.00
60465;BME280;46314;52.392;9.758;2024-02-14T09:33:15;100729.91;;;10.96;100.00
60465;BME280;46314;52.392;9.758;2024-02-14T09:35:42;100726.81;;;11.30;100.00
60465;BME280;46314;52.392;9.758;2024-02-14T09:38:08;100733.50;;;10.96;100.00
60465;BME280;46314;52.392;9.758;2024-02-14T09:40:34;100727.13;;;10.96;100.00
60465;BME280;46314;52.392;9.758;2024-02-14T09:43:03;100730.47;;;11.12;100.00
60465;BME280;46314;52.392;9.758;2024-02-14T09:45:31;100727.53;;;11.22;100.00
60465;BME280;46314;52.392;9.758;2024-02-14T09:47:58;100718.09;;;11.04;100.00
60465;BME280;46314;52.392;9.758;2024-02-14T09:50:27;100729.97;;;11.24;100.00
60465;BME280;46314;52.392;9.758;2024-02-14T09:52:55;100721.72;;;11.51;100.00
60465;BME280;46314;52.392;9.758;2024-02-14T09:55:23;100728.50;;;11.45;100.00
60465;BME280;46314;52.392;9.758;2024-02-14T09:57:49;100727.09;;;11.89;100.00
60465;BME280;46314;52.392;9.758;2024-02-14T10:00:16;100729.94;;;11.56;100.00
60465;BME280;46314;52.392;9.758;2024-02-14T10:02:43;100737.84;;;11.96;100.00
60465;BME280;46314;52.392;9.758;2024-02-14T10:05:09;100743.16;;;11.79;100.00
60465;BME280;46314;52.392;9.758;2024-02-14T10:07:41;100745.69;;;11.14;100.00
60465;BME280;46314;52.392;9.758;2024-02-14T10:10:08;100753.28;;;11.55;100.00
60465;BME280;46314;52.392;9.758;2024-02-14T10:12:34;100752.81;;;11.81;100.00
60465;BME280;46314;52.392;9.758;2024-02-14T10:15:01;100764.28;;;11.93;100.00
60465;BME280;46314;52.392;9.758;2024-02-14T10:17:27;100764.56;;;11.78;100.00
60465;BME280;46314;52.392;9.758;2024-02-14T10:19:55;100769.03;;;12.07;100.00
60465;BME280;46314;52.392;9.758;2024-02-14T10:22:22;100768.88;;;11.70;100.00
60465;BME280;46314;52.392;9.758;2024-02-14T10:24:50;100769.53;;;11.95;100.00
60465;BME280;46314;52.392;9.758;2024-02-14T10:27:16;100776.28;;;11.61;100.00
60465;BME280;46314;52.392;9.758;2024-02-14T10:29:43;100777.13;;;11.75;100.00
60465;BME280;46314;52.392;9.758;2024-02-14T10:32:09;100779.47;;;11.68;100.00
60465;BME280;46314;52.392;9.758;2024-02-14T10:34:37;100785.66;;;11.79;100.00
60465;BME280;46314;52.392;9.758;2024-02-14T10:37:05;100779.25;;;11.65;100.00
60465;BME280;46314;52.392;9.758;2024-02-14T10:39:32;100782.69;;;11.89;100.00
60465;BME280;46314;52.392;9.758;2024-02-14T10:42:00;100780.63;;;11.81;100.00
60465;BME280;46314;52.392;9.758;2024-02-14T10:44:26;100790.59;;;11.68;100.00
60465;BME280;46314;52.392;9.758;2024-02-14T10:46:55;100789.78;;;11.35;100.00
60465;BME280;46314;52.392;9.758;2024-02-14T10:49:25;100793.69;;;11.34;100.00
60465;BME280;46314;52.392;9.758;2024-02-14T10:51:56;100792.53;;;11.68;100.00
60465;BME280;46314;52.392;9.758;2024-02-14T10:54:24;100790.75;;;12.32;100.00
60465;BME280;46314;52.392;9.758;2024-02-14T10:56:53;100798.47;;;12.63;100.00
60465;BME280;46314;52.392;9.758;2024-02-14T10:59:24;100799.09;;;11.91;100.00
60465;BME280;46314;52.392;9.758;2024-02-14T11:01:51;100797.56;;;12.54;100.00
60465;BME280;46314;52.392;9.758;2024-02-14T11:04:18;100789.72;;;12.28;100.00
60465;BME280;46314;52.392;9.758;2024-02-14T11:06:46;100790.25;;;12.03;100.00
60465;BME280;46314;52.392;9.758;2024-02-14T11:09:13;100794.56;;;11.95;100.00
60465;BME280;46314;52.392;9.758;2024-02-14T11:11:40;100793.63;;;12.41;100.00
60465;BME280;46314;52.392;9.758;2024-02-14T11:14:06;100800.78;;;11.73;100.00
60465;BME280;46314;52.392;9.758;2024-02-14T11:16:37;100797.44;;;11.57;100.00
60465;BME280;46314;52.392;9.758;2024-02-14T11:19:07;100802.09;;;11.95;100.00
60465;BME280;46314;52.392;9.758;2024-02-14T11:21:35;100801.81;;;11.77;100.00
60465;BME280;46314;52.392;9.758;2024-02-14T11:24:04;100803.28;;;11.88;100.00
60465;BME280;46314;52.392;9.758;2024-02-14T11:26:38;100805.22;;;11.88;100.00
60465;BME280;46314;52.392;9.758;2024-02-14T11:29:04;100815.94;;;13.14;100.00
60465;BME280;46314;52.392;9.758;2024-02-14T11:31:34;100808.75;;;11.93;100.00
60465;BME280;46314;52.392;9.758;2024-02-14T11:34:04;100806.81;;;11.94;100.00
60465;BME280;46314;52.392;9.758;2024-02-14T11:36:32;100809.59;;;11.94;100.00
60465;BME280;46314;52.392;9.758;2024-02-14T11:38:58;100811.22;;;12.64;100.00
60465;BME280;46314;52.392;9.758;2024-02-14T11:41:28;100811.75;;;12.66;100.00
60465;BME280;46314;52.392;9.758;2024-02-14T11:44:00;100805.91;;;12.54;100.00
60465;BME280;46314;52.392;9.758;2024-02-14T11:46:27;100817.84;;;12.13;100.00
60465;BME280;46314;52.392;9.758;2024-02-14T11:48:55;100813.00;;;12.46;100.00
60465;BME280;46314;52.392;9.758;2024-02-14T11:51:21;100816.97;;;13.18;100.00
60465;BME280;46314;52.392;9.758;2024-02-14T11:53:48;100810.91;;;12.66;100.00
60465;BME280;46314;52.392;9.758;2024-02-14T11:56:15;100817.06;;;12.77;100.00
60465;BME280;46314;52.392;9.758;2024-02-14T11:58:42;100822.53;;;12.68;100.00
60465;BME280;46314;52.392;9.758;2024-02-14T12:01:08;100818.97;;;12.40;100.00
60465;BME280;46314;52.392;9.758;2024-02-14T12:03:35;100815.06;;;12.41;100.00
60465;BME280;46314;52.392;9.758;2024-02-14T12:06:03;100830.09;;;12.40;100.00
60465;BME280;46314;52.392;9.758;2024-02-14T12:08:30;100824.31;;;12.50;100.00
60465;BME280;46314;52.392;9.758;2024-02-14T12:10:57;100832.13;;;12.90;100.00
60465;BME280;46314;52.392;9.758;2024-02-14T12:13:24;100833.28;;;12.47;100.00
60465;BME280;46314;52.392;9.758;2024-02-14T12:15:51;100828.38;;;12.44;100.00
60465;BME280;46314;52.392;9.758;2024-02-14T12:18:19;100841.22;;;12.40;100.00
60465;BME280;46314;52.392;9.758;2024-02-14T12:20:47;100838.00;;;12.74;100.00
60465;BME280;46314;52.392;9.758;2024-02-14T12:23:17;100844.25;;;12.29;100.00
60465;BME280;46314;52.392;9.758;2024-02-14T12:25:44;100843.50;;;12.38;100.00
60465;BME280;46314;52.392;9.758;2024-02-14T12:28:13;100841.63;;;12.05;100.00
60465;BME280;46314;52.392;9.758;2024-02-14T12:30:44;100840.41;;;12.67;100.00
60465;BME280;46314;52.392;9.758;2024-02-14T12:33:11;100845.25;;;12.20;100.00
60465;BME280;46314;52.392;9.758;2024-02-14T12:35:41;100845.78;;;12.36;100.00
60465;BME280;46314;52.392;9.758;2024-02-14T12:38:07;100849.25;;;12.69;100.00
60465;BME280;46314;52.392;9.758;2024-02-14T12:40:36;100846.19;;;12.43;100.00
60465;BME280;46314;52.392;9.758;2024-02-14T12:43:02;100847.00;;;12.57;100.00
60465;BME280;46314;52.392;9.758;2024-02-14T12:45:29;100846.06;;;12.62;100.00
60465;BME280;46314;52.392;9.758;2024-02-14T12:47:55;100844.00;;;12.67;100.00